Terminal Aerodrome Forecast
Issued by NWS

Home | Current Version | Previous Version | Graphics & Text | Print | Product List | Glossary On
Versions: 1 2 3 4 5 6 7 8 9 10 11 12 13 14 15
000
FTUS43 KBIS 210040 AAB
TAFJMS
TAF AMD
KJMS 210040Z 2101/2124 16011KT P6SM SCT100 BKN180
     FM210200 14007KT P6SM SCT110
     FM210600 16007KT P6SM SCT120
     FM211700 18011KT P6SM FEW045 FEW200=

USA.gov is the U.S. government's official web portal to all federal, state and local government web resources and services.